28 de maio de 2022

Hora Código Clima Temp. Visibilidade Tecto Vento METAR/SPECI
4:50 da tarde
V
59 °F 6¼ mi+ - 320° 320° 10 kt METAR EDLV 281450Z 32010KT 280V010 CAVOK 15/04 Q1020
4:20 da tarde
V
61 °F 6¼ mi+ - 310° 310° 8 kt METAR EDLV 281420Z 31008KT 270V360 CAVOK 16/03 Q1020
3:50 da tarde
V
63 °F 6¼ mi+ - 310° 310° 11 kt METAR EDLV 281350Z 31011KT 270V350 CAVOK 17/04 Q1020
3:20 da tarde
V
61 °F 6¼ mi+ - 310° 310° 10 kt METAR EDLV 281320Z 31010KT 280V020 9999 FEW049 16/02 Q1020
2:50 da tarde
V
61 °F 6¼ mi+ - 310° 310° 10 kt METAR EDLV 281250Z 31010KT 270V360 CAVOK 16/04 Q1020
2:20 da tarde
V
61 °F 6¼ mi+ - 310° 310° 8 kt METAR EDLV 281220Z 31008KT 280V350 CAVOK 16/05 Q1021
1:50 da tarde
V
61 °F 6¼ mi+ - 310° 310° 9 kt METAR EDLV 281150Z 31009KT 280V030 CAVOK 16/04 Q1021
1:20 da tarde
V
59 °F 6¼ mi+ - 300° 300° 11 kt METAR EDLV 281120Z 30011KT 260V340 CAVOK 15/04 Q1021
12:50 da tarde
V
61 °F 6¼ mi+ - 300° 300° 8 kt METAR EDLV 281050Z 30008KT 270V340 CAVOK 16/04 Q1021
12:20 da tarde
V
61 °F 6¼ mi+ - 310° 310° 9 kt METAR EDLV 281020Z 31009KT 260V340 9999 FEW047 16/04 Q1021
11:50 da manhã
V
59 °F 6¼ mi+ - 300° 300° 11 kt METAR EDLV 280950Z 30011KT 270V350 CAVOK 15/05 Q1021
11:20 da manhã
V
59 °F 6¼ mi+ - 310° 310° 9 kt METAR EDLV 280920Z 31009KT 270V340 9999 SCT043 15/04 Q1022
10:50 da manhã
V
59 °F 6¼ mi+ - 310° 310° 8 kt METAR EDLV 280850Z 31008KT 270V010 9999 SCT040 15/05 Q1021
10:20 da manhã
V
57 °F 6¼ mi+ - 310° 310° 10 kt METAR EDLV 280820Z 31010KT 9999 FEW034 14/06 Q1022
9:50 da manhã
V
57 °F 6¼ mi+ - 320° 320° 8 kt METAR EDLV 280750Z 32008KT 270V010 9999 SCT033 14/05 Q1022
9:20 da manhã
V
55 °F 6¼ mi+ - 310° 310° 10 kt METAR EDLV 280720Z 31010KT 260V340 9999 FEW027 13/05 Q1022
8:50 da manhã
V
55 °F 6¼ mi+ - 310° 310° 7 kt METAR EDLV 280650Z 31007KT 9999 FEW022 13/06 Q1021
8:20 da manhã
V
54 °F 6¼ mi+ - 320° 320° 7 kt METAR EDLV 280620Z 32007KT 290V010 9999 // FEW020 12/08 Q1021
7:50 da manhã
V
54 °F 6¼ mi+ - 320° 320° 7 kt METAR EDLV 280550Z 32007KT 280V340 CAVOK 12/08 Q1021
7:20 da manhã
V
52 °F 6¼ mi+ - 290° 290° 5 kt METAR EDLV 280520Z 29005KT CAVOK 11/09 Q1021
6:50 da manhã
V
50 °F 6¼ mi+ - 300° 300° 5 kt METAR EDLV 280450Z 30005KT 260V330 CAVOK 10/08 Q1021
6:20 da manhã
V
48 °F 6¼ mi+ - 280° 280° 4 kt METAR EDLV 280420Z 28004KT CAVOK 09/07 Q1021
5:50 da manhã
V
48 °F 6¼ mi+ - 280° 280° 4 kt METAR EDLV 280350Z 28004KT CAVOK 09/07 Q1021
5:20 da manhã
V
50 °F 6¼ mi+ - 280° 280° 5 kt METAR EDLV 280320Z 28005KT CAVOK 10/07 Q1021
4:50 da manhã
V
50 °F 6¼ mi+ - 260° 260° 8 kt METAR EDLV 280250Z 26008KT CAVOK 10/07 Q1020
4:20 da manhã
V
50 °F 6¼ mi+ - 260° 260° 6 kt METAR EDLV 280220Z AUTO 26006KT 9999 // FEW049/// 10/06 Q1021
3:50 da manhã
V
50 °F 6¼ mi+ - 270° 270° 5 kt METAR EDLV 280150Z AUTO 27005KT 9999 // FEW051/// 10/06 Q1021
3:20 da manhã
V
50 °F 6¼ mi+ - 260° 260° 7 kt METAR EDLV 280120Z AUTO 26007KT 9999 // FEW054/// SCT083/// 10/06 Q1021
2:50 da manhã
V
50 °F 6¼ mi+ 8.100 ft 270° 270° 7 kt METAR EDLV 280050Z AUTO 27007KT 9999 // FEW049/// BKN081/// 10/06 Q1021
2:20 da manhã
V
52 °F 6¼ mi+ 6.700 ft 250° 250° 8 kt METAR EDLV 280020Z AUTO 25008KT 9999 // FEW047/// BKN067/// 11/06 Q1021
1:50 da manhã
V
50 °F 6¼ mi+ 6.500 ft 260° 260° 7 kt METAR EDLV 272350Z AUTO 26007KT 9999 // BKN065/// 10/06 Q1021
1:20 da manhã
V
50 °F 6¼ mi+ 7.200 ft 260° 260° 7 kt METAR EDLV 272320Z AUTO 26007KT 9999 // FEW049/// BKN072/// 10/06 Q1022
12:50 da manhã
V
50 °F 6¼ mi+ - 270° 270° 6 kt METAR EDLV 272250Z AUTO 27006KT 9999 // NCD 10/05 Q1022
12:20 da manhã
V
50 °F 6¼ mi+ - 260° 260° 5 kt METAR EDLV 272220Z AUTO 26005KT 9999 // NCD 10/06 Q1022

27 de maio de 2022

Hora Código Clima Temp. Visibilidade Tecto Vento METAR/SPECI
11:50 da tarde
V
50 °F 6¼ mi+ - 270° 270° 4 kt METAR EDLV 272150Z 27004KT CAVOK 10/05 Q1022
11:20 da tarde
V
52 °F 6¼ mi+ - 280° 280° 6 kt METAR EDLV 272120Z 28006KT CAVOK 11/05 Q1022
10:50 da tarde
V
52 °F 6¼ mi+ - 270° 270° 5 kt METAR EDLV 272050Z 27005KT CAVOK 11/05 Q1023
10:20 da tarde
V
54 °F 6¼ mi+ - 290° 290° 4 kt METAR EDLV 272020Z 29004KT CAVOK 12/05 Q1023
9:50 da tarde
V
54 °F 6¼ mi+ - 300° 300° 3 kt METAR EDLV 271950Z 30003KT 270V330 CAVOK 12/05 Q1022
9:20 da tarde
V
55 °F 6¼ mi+ - 290° 290° 5 kt METAR EDLV 271920Z 29005KT CAVOK 13/05 Q1022
8:50 da tarde
V
57 °F 6¼ mi+ - 290° 290° 8 kt METAR EDLV 271850Z 29008KT 270V330 CAVOK 14/05 Q1022
8:20 da tarde
V
57 °F 6¼ mi+ - 300° 300° 10 kt METAR EDLV 271820Z 30010KT 280V340 9999 FEW049 14/04 Q1022
7:50 da tarde
V
59 °F 6¼ mi+ - 290° 290° 11 kt METAR EDLV 271750Z 29011KT 260V320 9999 FEW044 15/05 Q1022
7:20 da tarde
V
59 °F 6¼ mi+ - 300° 300° 11 kt METAR EDLV 271720Z 30011KT 270V340 9999 SCT046 15/05 Q1022
6:50 da tarde
V
59 °F 6¼ mi+ - 300° 300° 12 kt METAR EDLV 271650Z 30012KT 270V350 9999 FEW048 15/05 Q1022
6:20 da tarde
V
61 °F 6¼ mi+ - 300° 300° 12 - 22 kt METAR EDLV 271620Z 30012G22KT 270V340 9999 FEW049 16/05 Q1022
5:50 da tarde
V
61 °F 6¼ mi+ - 290° 290° 15 kt METAR EDLV 271550Z 29015KT 270V330 CAVOK 16/05 Q1022
5:20 da tarde
V
61 °F 6¼ mi+ - 300° 300° 13 kt METAR EDLV 271520Z 30013KT 270V340 9999 SCT049 16/05 Q1022
4:50 da tarde
V
63 °F 6¼ mi+ - 300° 300° 13 - 23 kt METAR EDLV 271450Z 30013G23KT 250V340 CAVOK 17/06 Q1022
4:20 da tarde
V
64 °F 6¼ mi+ - 300° 300° 13 kt METAR EDLV 271420Z 30013KT 260V340 CAVOK 18/06 Q1021
3:50 da tarde
V
64 °F 6¼ mi+ - 300° 300° 12 kt METAR EDLV 271350Z 30012KT 280V350 CAVOK 18/07 Q1021
3:20 da tarde
V
64 °F 6¼ mi+ - 290° 290° 12 kt METAR EDLV 271320Z 29012KT 270V350 9999 SCT048 18/06 Q1021
2:50 da tarde
V
63 °F 6¼ mi+ - 280° 280° 16 kt METAR EDLV 271250Z 28016KT 250V310 CAVOK 17/05 Q1021
2:20 da tarde
V
64 °F 6¼ mi+ - 290° 290° 15 kt METAR EDLV 271220Z 29015KT 250V320 9999 SCT048 18/06 Q1021
1:50 da tarde
V
64 °F 6¼ mi+ - 290° 290° 12 kt METAR EDLV 271150Z 29012KT 250V350 9999 SCT047 18/07 Q1021
1:20 da tarde
V
63 °F 6¼ mi+ 4.600 ft 290° 290° 14 - 24 kt METAR EDLV 271120Z 29014G24KT 270V340 9999 BKN046 17/06 Q1021
12:50 da tarde
V
64 °F 6¼ mi+ - 300° 300° 12 kt METAR EDLV 271050Z 30012KT 270V340 9999 SCT044 18/08 Q1021
12:20 da tarde
V
63 °F 6¼ mi+ - 290° 290° 12 - 23 kt METAR EDLV 271020Z 29012G23KT 260V330 9999 SCT042 17/08 Q1021
11:50 da manhã
V
63 °F 6¼ mi+ - 300° 300° 9 kt METAR EDLV 270950Z 30009KT 280V350 9999 SCT040 17/08 Q1021
11:20 da manhã
V
61 °F 6¼ mi+ 4.200 ft 300° 300° 11 kt METAR EDLV 270920Z 30011KT 270V330 9999 FEW037 BKN042 16/09 Q1021
10:50 da manhã
V
61 °F 6¼ mi+ 3.900 ft 300° 300° 8 kt METAR EDLV 270850Z 30008KT 260V360 9999 FEW034 BKN039 BKN046 16/08 Q1021
10:20 da manhã
V
61 °F 6¼ mi+ - 300° 300° 9 kt METAR EDLV 270820Z 30009KT 280V340 9999 SCT032 SCT042 16/09 Q1020
9:50 da manhã
V
59 °F 6¼ mi+ 3.100 ft 300° 300° 10 kt METAR EDLV 270750Z 30010KT 270V340 9999 FEW022 SCT026 BKN031 15/09 Q1020
9:20 da manhã
V
61 °F 6¼ mi+ 4.700 ft 280° 280° 8 kt METAR EDLV 270720Z 28008KT 250V320 9999 SCT017 BKN047 16/12 Q1020
8:50 da manhã
V
59 °F 6¼ mi+ 4.900 ft 290° 290° 9 kt METAR EDLV 270650Z 29009KT 9999 SCT008 OVC049 15/12 Q1020
8:20 da manhã
V
57 °F 6¼ mi+ 4.700 ft 260° 260° 7 kt METAR EDLV 270620Z 26007KT 9999 SCT007 BKN047 14/13 Q1020
7:50 da manhã
V
57 °F 6¼ mi+ - 260° 260° 6 kt METAR EDLV 270550Z 26006KT 9999 FEW020 14/13 Q1020
7:20 da manhã
V
55 °F 6¼ mi+ 4.200 ft 240° 240° 6 kt METAR EDLV 270520Z 24006KT 9999 FEW014 BKN042 13/12 Q1019
6:50 da manhã
V
55 °F 6¼ mi+ 4.200 ft 250° 250° 6 kt METAR EDLV 270450Z 25006KT 9999 BKN042 13/12 Q1019
6:20 da manhã
V
55 °F 6¼ mi+ 4.500 ft 230° 230° 7 kt METAR EDLV 270420Z 23007KT 9999 FEW007 SCT015 OVC045 13/12 Q1019
5:50 da manhã
V
55 °F 5⅝ mi 3.700 ft 240° 240° 7 kt METAR EDLV 270350Z 24007KT 9000 -RA FEW011 BKN037 OVC047 13/12 Q1019
5:20 da manhã
V
55 °F 6¼ mi+ 4.100 ft 260° 260° 7 kt METAR EDLV 270320Z 26007KT 9999 -RA FEW017 SCT036 OVC041 13/12 Q1019 RERA
4:50 da manhã
I
55 °F 2½ mi 3.300 ft 290° 290° 6 kt METAR EDLV 270250Z 29006KT 4000 RA SCT004 OVC033 13/13 Q1019
4:20 da manhã
I
55 °F 2⅛ mi 800 ft 260° 260° 9 kt METAR EDLV 270220Z AUTO 26009KT 3500 // OVC008/// 13/12 Q1019
3:50 da manhã
M
57 °F 5⅝ mi 1.500 ft 250° 250° 12 kt METAR EDLV 270150Z AUTO 25012KT 9000 // OVC015/// 14/12 Q1019
3:20 da manhã
M
59 °F 6¼ mi+ 2.000 ft 250° 250° 13 kt METAR EDLV 270120Z AUTO 25013KT 210V270 9999 // OVC020/// 15/11 Q1019
2:50 da manhã
M
59 °F 6¼ mi+ 2.100 ft 250° 250° 11 kt METAR EDLV 270050Z AUTO 25011KT 9999 // BKN021/// OVC033/// 15/11 Q1019
2:20 da manhã
M
59 °F 6¼ mi+ 2.200 ft 240° 240° 12 kt METAR EDLV 270020Z AUTO 24012KT 9999 // BKN022/// BKN032/// OVC052/// 15/11 Q1019
1:50 da manhã
M
59 °F 6¼ mi+ 2.900 ft 240° 240° 13 kt METAR EDLV 262350Z AUTO 24013KT 220V280 9999 // SCT022/// BKN029/// OVC056/// 15/11 Q1020
1:20 da manhã
V
59 °F 6¼ mi+ 3.300 ft 240° 240° 12 kt METAR EDLV 262320Z AUTO 24012KT 9999 // FEW023/// BKN033/// OVC051/// 15/11 Q1020
12:50 da manhã
V
59 °F 6¼ mi+ 5.400 ft 240° 240° 14 kt METAR EDLV 262250Z AUTO 24014KT 9999 // FEW023/// SCT034/// OVC054/// 15/11 Q1020
12:20 da manhã
V
61 °F 6¼ mi+ 5.300 ft 240° 240° 13 kt METAR EDLV 262220Z AUTO 24013KT 9999 // FEW025/// OVC053/// 16/11 Q1020

26 de maio de 2022

Hora Código Clima Temp. Visibilidade Tecto Vento METAR/SPECI
11:50 da tarde
V
61 °F 6¼ mi+ - 240° 240° 12 kt METAR EDLV 262150Z 24012KT 9999 // SCT039 16/11 Q1020
11:20 da tarde
V
61 °F 6¼ mi+ - 250° 250° 13 kt METAR EDLV 262120Z 25013KT 9999 FEW029 16/11 Q1020
10:50 da tarde
V
63 °F 6¼ mi+ - 250° 250° 12 kt METAR EDLV 262050Z 25012KT 9999 // FEW034 17/11 Q1020
10:20 da tarde
V
63 °F 6¼ mi+ - 250° 250° 12 kt METAR EDLV 262020Z 25012KT 9999 FEW033 17/11 Q1020
9:50 da tarde
V
64 °F 6¼ mi+ - 250° 250° 13 kt METAR EDLV 261950Z 25013KT 9999 FEW042 18/11 Q1020
9:20 da tarde
V
64 °F 6¼ mi+ 3.400 ft 250° 250° 16 kt METAR EDLV 261920Z 25016KT 9999 BKN034 OVC043 18/11 Q1020
8:50 da tarde
V
66 °F 6¼ mi+ 3.500 ft 260° 260° 12 kt METAR EDLV 261850Z 26012KT 9999 OVC035 19/12 Q1019
8:20 da tarde
V
66 °F 6¼ mi+ 3.800 ft 250° 250° 13 kt METAR EDLV 261820Z 25013KT 9999 OVC038 19/11 Q1019
7:50 da tarde
V
66 °F 6¼ mi+ 3.900 ft 250° 250° 13 kt METAR EDLV 261750Z 25013KT 220V280 9999 OVC039 19/11 Q1019
7:20 da tarde
V
66 °F 6¼ mi+ 4.000 ft 240° 240° 14 kt METAR EDLV 261720Z 24014KT 9999 BKN040 OVC048 19/11 Q1019
6:50 da tarde
V
68 °F 6¼ mi+ 4.300 ft 240° 240° 13 kt METAR EDLV 261650Z 24013KT 9999 BKN043 20/11 Q1020
6:20 da tarde
V
68 °F 6¼ mi+ 4.500 ft 250° 250° 14 kt METAR EDLV 261620Z 25014KT 9999 BKN045 20/10 Q1020
5:50 da tarde
V
68 °F 6¼ mi+ 4.300 ft 240° 240° 14 kt METAR EDLV 261550Z 24014KT 9999 BKN043 20/11 Q1020
5:20 da tarde
V
68 °F 6¼ mi+ 4.500 ft 240° 240° 14 kt METAR EDLV 261520Z 24014KT 9999 OVC045 20/11 Q1020
4:50 da tarde
V
68 °F 6¼ mi+ 4.500 ft 250° 250° 14 kt METAR EDLV 261450Z 25014KT 9999 BKN045 20/10 Q1020
Dados mais antigos

Baixe nosso aplicativo

Fácil acesso a todas as condições meteorológicas da aviação no seu celular e no seu tablet.
Com muitas características não disponíveis no site, como suporte offline e uma lista pessoal de aeroportos.

Nós e terceiros acompanhamos seu comportamento na internet em nosso site com cookies. Se você continuar, nós assumimos que você concorda com nossa política de cookies. Saiba mais